Time;durP1;ratioP1;P1;durP2;ratioP2;P2;SDS_P1;SDS_P2;PMS_P1;PMS_P2;Temp;Humidity;BMP_temperature;BMP_pressure;BME280_temperature;BME280_humidity;BME280_pressure;Samples;Min_cycle;Max_cycle;Signal;HPM_P1;HPM_P2
2021/06/30 00:02:25;;;;;;;22.27;20.00;;;15.30;91.80;;;;;;5094726;28;20024;-58
2021/06/30 00:04:53;;;;;;;21.92;19.52;;;15.40;91.80;;;;;;5094459;28;20032;-58
2021/06/30 00:07:21;;;;;;;22.23;20.17;;;15.40;91.80;;;;;;5094024;28;20476;-56
2021/06/30 00:09:48;;;;;;;24.23;21.65;;;15.40;91.90;;;;;;5094101;28;20104;-56
2021/06/30 00:12:16;;;;;;;27.17;24.48;;;15.40;91.80;;;;;;5093760;28;20084;-58
2021/06/30 00:14:45;;;;;;;26.38;23.92;;;15.40;91.80;;;;;;5096610;28;20114;-57
2021/06/30 00:17:13;;;;;;;27.17;24.65;;;15.50;91.80;;;;;;5113540;28;20538;-56
2021/06/30 00:19:40;;;;;;;26.27;23.88;;;15.50;91.80;;;;;;5114350;28;20493;-56
2021/06/30 00:22:08;;;;;;;25.85;23.63;;;15.50;91.70;;;;;;5114280;28;20393;-53
2021/06/30 00:24:35;;;;;;;26.70;24.10;;;15.60;91.50;;;;;;5114139;28;20415;-58
2021/06/30 00:27:03;;;;;;;24.45;22.13;;;15.60;91.40;;;;;;5113845;28;20054;-60
2021/06/30 00:29:30;;;;;;;23.90;21.42;;;15.70;91.50;;;;;;5113640;28;20147;-56
2021/06/30 00:31:57;;;;;;;23.95;21.10;;;15.70;91.30;;;;;;5114415;28;20031;-55
2021/06/30 00:34:25;;;;;;;22.98;20.60;;;15.80;91.30;;;;;;5114050;28;20024;-55
2021/06/30 00:36:52;;;;;;;22.73;19.75;;;15.80;91.50;;;;;;5113966;28;20099;-56
2021/06/30 00:39:22;;;;;;;22.05;19.95;;;15.80;91.50;;;;;;5113456;28;20032;-58
2021/06/30 00:41:49;;;;;;;24.30;19.75;;;15.80;91.40;;;;;;5086412;28;20055;-58
2021/06/30 00:44:17;;;;;;;20.77;18.67;;;15.90;91.40;;;;;;5088852;28;20028;-59
2021/06/30 00:46:44;;;;;;;19.23;17.33;;;15.90;91.30;;;;;;5092906;28;20056;-60
2021/06/30 00:49:11;;;;;;;17.88;15.75;;;15.90;91.30;;;;;;5090239;28;20064;-58
2021/06/30 00:51:39;;;;;;;18.85;16.92;;;15.90;91.50;;;;;;5089956;28;20024;-53
2021/06/30 00:54:06;;;;;;;16.52;14.82;;;15.90;91.20;;;;;;5085661;28;20032;-56
2021/06/30 00:56:34;;;;;;;21.35;16.08;;;15.90;91.20;;;;;;5090382;28;20016;-58
2021/06/30 00:59:03;;;;;;;19.02;15.10;;;15.90;91.20;;;;;;5091020;28;20047;-61
2021/06/30 01:01:31;;;;;;;16.92;14.93;;;15.90;91.30;;;;;;5089173;28;20024;-57
2021/06/30 01:03:58;;;;;;;18.45;14.68;;;15.90;91.30;;;;;;5087311;28;20035;-62
2021/06/30 01:06:26;;;;;;;15.18;13.15;;;15.90;91.30;;;;;;5090368;28;20995;-59
2021/06/30 01:08:53;;;;;;;17.08;15.20;;;15.90;91.30;;;;;;5089978;28;20479;-58
2021/06/30 01:11:21;;;;;;;14.07;12.63;;;15.90;91.30;;;;;;5089246;28;20474;-58
2021/06/30 01:13:48;;;;;;;15.40;13.75;;;15.90;91.40;;;;;;5085955;28;20054;-59
2021/06/30 01:16:16;;;;;;;15.98;13.35;;;15.90;91.40;;;;;;5089377;28;20043;-56
2021/06/30 01:18:45;;;;;;;17.65;14.00;;;15.90;91.50;;;;;;5089128;28;20016;-61
2021/06/30 01:21:13;;;;;;;15.43;13.23;;;16.00;91.60;;;;;;5089564;28;20059;-59
2021/06/30 01:23:42;;;;;;;17.48;14.35;;;16.00;91.70;;;;;;5086415;28;20024;-61
2021/06/30 01:26:10;;;;;;;16.83;14.85;;;16.10;92.80;;;;;;5087691;28;20104;-54
2021/06/30 01:28:38;;;;;;;15.68;14.07;;;16.20;93.10;;;;;;5089433;28;20078;-55
2021/06/30 01:31:07;;;;;;;19.05;16.15;;;16.40;93.20;;;;;;5089640;28;20032;-57
2021/06/30 01:33:34;;;;;;;17.98;14.88;;;16.60;93.10;;;;;;5086592;28;20378;-56
2021/06/30 01:36:03;;;;;;;13.77;12.15;;;16.80;92.70;;;;;;5088859;28;20519;-49
2021/06/30 01:38:31;;;;;;;19.10;13.60;;;17.20;91.30;;;;;;5089906;28;20042;-52
2021/06/30 01:40:59;;;;;;;17.00;13.00;;;17.70;90.80;;;;;;5089537;28;20038;-52
2021/06/30 01:43:26;;;;;;;13.40;11.45;;;18.10;90.40;;;;;;5085366;28;20039;-54
2021/06/30 01:45:55;;;;;;;12.85;11.55;;;18.40;87.20;;;;;;5090095;28;20028;-61
2021/06/30 01:48:23;;;;;;;13.40;11.45;;;18.80;86.40;;;;;;5090134;28;20024;-58
2021/06/30 01:50:51;;;;;;;16.80;12.77;;;19.20;85.40;;;;;;5088704;28;20035;-53
2021/06/30 01:53:20;;;;;;;13.95;10.48;;;19.50;83.10;;;;;;5086286;28;20032;-56
2021/06/30 01:55:48;;;;;;;12.95;10.75;;;19.70;80.50;;;;;;5089457;28;20047;-52
2021/06/30 01:58:23;;;;;;;11.13;9.98;;;19.90;79.90;;;;;;5089273;28;20024;-49
2021/06/30 02:00:53;;;;;;;9.80;8.90;;;20.00;78.10;;;;;;5088858;28;20044;-56
2021/06/30 02:03:21;;;;;;;11.65;9.57;;;20.00;76.10;;;;;;5084708;28;20052;-57
2021/06/30 02:05:48;;;;;;;10.32;8.77;;;19.80;76.60;;;;;;5087656;28;20024;-60
2021/06/30 02:08:17;;;;;;;11.07;9.02;;;19.60;77.10;;;;;;5088559;28;20024;-57
2021/06/30 02:10:45;;;;;;;12.73;9.75;;;19.40;79.70;;;;;;5089281;28;20020;-53
2021/06/30 02:13:13;;;;;;;11.68;9.23;;;19.30;80.00;;;;;;5084343;28;20029;-53
2021/06/30 02:15:41;;;;;;;9.82;8.57;;;19.10;80.00;;;;;;5087682;28;20035;-55
2021/06/30 02:18:09;;;;;;;11.68;8.32;;;19.00;81.40;;;;;;5087065;28;20058;-55
2021/06/30 02:20:37;;;;;;;12.45;8.20;;;19.00;82.60;;;;;;5088450;28;20081;-59
2021/06/30 02:23:05;;;;;;;8.85;7.95;;;18.90;82.90;;;;;;5083788;28;20032;-57
2021/06/30 02:25:33;;;;;;;11.75;8.32;;;18.80;81.80;;;;;;5087226;28;20695;-53
2021/06/30 02:28:00;;;;;;;10.48;8.82;;;18.80;83.30;;;;;;5088435;28;20048;-52
2021/06/30 02:30:33;;;;;;;9.25;7.95;;;18.70;82.30;;;;;;5081005;28;20046;-51
2021/06/30 02:33:01;;;;;;;8.82;7.40;;;18.70;83.50;;;;;;5084686;28;20653;-53
2021/06/30 02:35:29;;;;;;;8.50;7.40;;;18.70;84.20;;;;;;5089281;28;20024;-55
2021/06/30 02:37:58;;;;;;;9.00;7.30;;;18.70;84.40;;;;;;5088216;28;20051;-51
2021/06/30 02:40:31;;;;;;;9.00;7.45;;;18.80;84.00;;;;;;5087121;28;20047;-54
2021/06/30 02:42:57;;;;;;;;;;;18.80;82.80;;;;;;5085230;28;20028;-55
2021/06/30 02:45:25;;;;;;;11.40;7.60;;;19.00;84.60;;;;;;5087441;28;19904;-56
2021/06/30 02:47:52;;;;;;;8.93;7.28;;;19.20;82.20;;;;;;5088002;28;20024;-54
2021/06/30 02:50:21;;;;;;;7.40;6.70;;;19.30;80.40;;;;;;5088446;28;20028;-54
2021/06/30 02:52:50;;;;;;;8.38;7.00;;;19.10;80.40;;;;;;5086682;28;20024;-52
2021/06/30 02:55:19;;;;;;;8.63;7.05;;;19.00;80.70;;;;;;5086567;28;20024;-54
2021/06/30 02:57:47;;;;;;;8.32;6.80;;;19.00;81.40;;;;;;5086273;28;20032;-56
2021/06/30 03:00:20;;;;;;;9.00;6.18;;;18.90;81.60;;;;;;5087955;28;20501;-51
2021/06/30 03:02:48;;;;;;;9.60;7.07;;;18.80;81.80;;;;;;5088818;28;20027;-54
2021/06/30 03:05:17;;;;;;;7.28;6.63;;;18.80;82.00;;;;;;5089949;28;20406;-55
2021/06/30 03:07:45;;;;;;;12.95;6.97;;;18.60;82.80;;;;;;5091915;28;20017;-57
2021/06/30 03:10:14;;;;;;;12.95;6.80;;;18.70;83.70;;;;;;5092059;28;20036;-55
2021/06/30 03:12:41;;;;;;;8.82;6.20;;;18.70;83.30;;;;;;5090577;28;20406;-53
2021/06/30 03:15:10;;;;;;;10.05;6.18;;;18.70;83.70;;;;;;5088396;28;20122;-57
2021/06/30 03:17:38;;;;;;;15.13;6.35;;;18.70;84.40;;;;;;5091888;28;20026;-53
2021/06/30 03:20:10;;;;;;;6.82;5.53;;;18.70;84.00;;;;;;5090351;28;20032;-55
2021/06/30 03:22:41;;;;;;;8.05;6.10;;;18.70;84.10;;;;;;5088756;28;20466;-52
2021/06/30 03:25:11;;;;;;;35.90;6.10;;;18.70;85.10;;;;;;5087694;28;20027;-56
2021/06/30 03:27:39;;;;;;;9.20;6.35;;;18.80;84.80;;;;;;5086847;28;20369;-54
2021/06/30 03:30:08;;;;;;;10.18;6.13;;;19.00;84.30;;;;;;5089561;28;20131;-51
2021/06/30 03:32:36;;;;;;;8.63;6.43;;;18.90;82.90;;;;;;5088991;28;20035;-55
2021/06/30 03:35:05;;;;;;;7.47;6.03;;;18.90;82.60;;;;;;5087394;28;20372;-56
2021/06/30 03:37:33;;;;;;;8.65;6.00;;;18.80;82.60;;;;;;5091256;28;20024;-55
2021/06/30 03:40:00;;;;;;;7.47;5.47;;;18.80;82.70;;;;;;5090178;28;20490;-55
2021/06/30 03:42:28;;;;;;;10.88;6.47;;;18.70;83.00;;;;;;5091418;28;20339;-55
2021/06/30 03:44:55;;;;;;;9.27;6.07;;;18.60;83.20;;;;;;5087115;28;20034;-52
2021/06/30 03:47:25;;;;;;;9.95;6.40;;;18.60;83.60;;;;;;5090165;28;20107;-52
2021/06/30 03:49:53;;;;;;;6.25;5.65;;;18.50;83.80;;;;;;5091944;28;20032;-53
2021/06/30 03:52:21;;;;;;;14.45;5.25;;;18.50;84.20;;;;;;5090828;28;20032;-55
2021/06/30 03:54:48;;;;;;;8.13;5.78;;;18.50;83.70;;;;;;5087892;28;20099;-54
2021/06/30 03:57:16;;;;;;;5.90;5.32;;;18.40;84.30;;;;;;5090406;28;20036;-53
2021/06/30 03:59:43;;;;;;;6.50;5.43;;;18.30;84.40;;;;;;5090832;28;20371;-52
2021/06/30 04:02:11;;;;;;;13.73;8.38;;;18.30;84.90;;;;;;5088895;28;20123;-53
2021/06/30 04:04:39;;;;;;;24.50;15.73;;;18.20;85.00;;;;;;5084196;28;20032;-53
2021/06/30 04:07:06;;;;;;;57.35;34.88;;;18.20;84.90;;;;;;5091309;28;20020;-58
2021/06/30 04:09:34;;;;;;;55.15;34.30;;;18.20;85.10;;;;;;5089860;28;20528;-59
2021/06/30 04:12:01;;;;;;;65.28;40.58;;;18.20;85.40;;;;;;5090690;28;20086;-56
2021/06/30 04:14:28;;;;;;;60.67;37.13;;;18.20;85.70;;;;;;5085950;28;20035;-57
2021/06/30 04:16:56;;;;;;;56.05;35.60;;;18.10;85.80;;;;;;5089387;28;20024;-53
2021/06/30 04:19:24;;;;;;;52.60;32.30;;;18.10;86.10;;;;;;5090899;28;20052;-55
2021/06/30 04:21:51;;;;;;;60.10;38.42;;;18.10;87.00;;;;;;5090858;28;20020;-54
2021/06/30 04:24:18;;;;;;;62.97;37.78;;;18.10;86.60;;;;;;5086777;28;20024;-53
2021/06/30 04:26:46;;;;;;;54.88;34.95;;;18.10;86.90;;;;;;5088884;28;20067;-56
2021/06/30 04:29:13;;;;;;;53.35;34.35;;;18.00;88.00;;;;;;5090415;28;20025;-57
2021/06/30 04:31:40;;;;;;;48.15;31.20;;;18.10;88.10;;;;;;5086805;28;20417;-57
2021/06/30 04:34:08;;;;;;;51.80;31.92;;;18.00;88.20;;;;;;5085816;28;20020;-55
2021/06/30 04:36:35;;;;;;;48.05;31.45;;;18.00;88.70;;;;;;5090923;28;20123;-54
2021/06/30 04:39:04;;;;;;;56.08;34.47;;;18.00;89.20;;;;;;5090551;28;20438;-56
2021/06/30 04:41:31;;;;;;;55.92;35.25;;;18.00;88.90;;;;;;5090564;28;20028;-60
2021/06/30 04:43:58;;;;;;;69.53;45.63;;;17.90;89.10;;;;;;5086334;28;20378;-58
2021/06/30 04:46:26;;;;;;;59.95;36.85;;;17.90;87.80;;;;;;5089684;28;20059;-60
2021/06/30 04:48:53;;;;;;;55.47;37.13;;;17.90;89.20;;;;;;5090846;28;20031;-58
2021/06/30 04:51:21;;;;;;;63.78;37.45;;;17.80;89.00;;;;;;5091585;28;20086;-57
2021/06/30 04:53:51;;;;;;;56.35;37.33;;;17.80;89.00;;;;;;5091830;28;20059;-56
2021/06/30 04:56:26;;;;;;;57.10;39.03;;;17.70;89.50;;;;;;5092190;28;20032;-57
2021/06/30 04:58:55;;;;;;;67.05;38.33;;;17.70;89.10;;;;;;5092866;28;20463;-57
2021/06/30 05:01:23;;;;;;;64.57;38.13;;;17.60;89.70;;;;;;5092933;28;20077;-55
2021/06/30 05:03:50;;;;;;;56.45;36.63;;;17.60;90.00;;;;;;5093400;28;20062;-58
2021/06/30 05:06:19;;;;;;;60.00;39.03;;;17.60;90.00;;;;;;5093062;28;20467;-57
2021/06/30 05:08:46;;;;;;;65.82;43.10;;;17.50;89.80;;;;;;5093013;28;20114;-56
2021/06/30 05:11:13;;;;;;;65.63;41.47;;;17.50;89.50;;;;;;5093247;28;20024;-57
2021/06/30 05:13:41;;;;;;;46.63;32.67;;;17.50;90.00;;;;;;5092892;28;20494;-53
2021/06/30 05:16:08;;;;;;;56.33;36.33;;;17.50;90.50;;;;;;5093280;28;20115;-56
2021/06/30 05:18:36;;;;;;;63.88;40.17;;;17.50;90.20;;;;;;5092300;28;20039;-59
2021/06/30 05:21:03;;;;;;;61.35;37.17;;;17.40;90.00;;;;;;5093090;28;20036;-55
2021/06/30 05:23:30;;;;;;;56.33;34.65;;;17.40;90.20;;;;;;5093028;28;20040;-55
2021/06/30 05:25:59;;;;;;;62.45;37.88;;;17.40;90.50;;;;;;5091835;28;20031;-58
2021/06/30 05:28:27;;;;;;;55.15;33.53;;;17.40;90.50;;;;;;5091672;28;20043;-60
2021/06/30 05:30:54;;;;;;;52.88;35.58;;;17.40;90.60;;;;;;5092951;28;20392;-59
2021/06/30 05:33:21;;;;;;;42.85;29.92;;;17.40;90.40;;;;;;5092773;28;20110;-58
2021/06/30 05:35:50;;;;;;;45.75;30.63;;;17.40;90.80;;;;;;5092833;28;20099;-58
2021/06/30 05:38:18;;;;;;;51.40;32.85;;;17.30;90.80;;;;;;5093032;28;20021;-57
2021/06/30 05:40:45;;;;;;;54.55;34.05;;;17.30;90.70;;;;;;5092650;28;20063;-57
2021/06/30 05:43:13;;;;;;;56.55;35.33;;;17.30;90.60;;;;;;5093020;28;20038;-57
2021/06/30 05:45:40;;;;;;;45.88;30.23;;;17.30;90.40;;;;;;5092415;28;20028;-58
2021/06/30 05:48:08;;;;;;;49.30;32.58;;;17.30;90.80;;;;;;5092990;28;20020;-57
2021/06/30 05:50:36;;;;;;;39.90;26.85;;;17.30;90.70;;;;;;5092532;28;20059;-54
2021/06/30 05:53:04;;;;;;;52.85;33.33;;;17.30;90.90;;;;;;5092796;28;20024;-54
2021/06/30 05:55:31;;;;;;;51.58;34.00;;;17.30;90.70;;;;;;5092252;28;20077;-54
2021/06/30 05:57:59;;;;;;;56.92;39.13;;;17.20;90.60;;;;;;5090679;28;20021;-57
2021/06/30 06:00:26;;;;;;;49.55;33.63;;;17.20;90.40;;;;;;5091680;28;20367;-58
2021/06/30 06:02:53;;;;;;;56.20;38.58;;;17.20;90.80;;;;;;5092327;28;20020;-55
2021/06/30 06:05:21;;;;;;;56.95;38.38;;;17.10;90.50;;;;;;5091966;28;20028;-58
2021/06/30 06:07:48;;;;;;;57.75;38.17;;;17.20;90.40;;;;;;5092648;28;20020;-57
2021/06/30 06:10:18;;;;;;;59.17;40.28;;;17.10;90.40;;;;;;5086139;28;20024;-58
2021/06/30 06:12:46;;;;;;;65.32;37.90;;;17.10;90.50;;;;;;5085157;28;20461;-53
2021/06/30 06:15:13;;;;;;;53.60;37.28;;;17.10;90.60;;;;;;5089065;28;20075;-55
2021/06/30 06:17:40;;;;;;;54.40;36.47;;;17.10;90.50;;;;;;5089446;28;20410;-49
2021/06/30 06:20:09;;;;;;;57.10;37.03;;;17.10;90.60;;;;;;5086190;28;20336;-54
2021/06/30 06:22:37;;;;;;;57.50;38.47;;;17.10;90.50;;;;;;5086420;28;20039;-60
2021/06/30 06:25:07;;;;;;;54.20;35.67;;;17.10;90.40;;;;;;5088925;28;20035;-56
2021/06/30 06:27:37;;;;;;;56.33;36.28;;;17.10;90.40;;;;;;5087434;28;20075;-61
2021/06/30 06:30:09;;;;;;;53.47;35.33;;;17.20;90.30;;;;;;5089172;28;20044;-54
2021/06/30 06:32:37;;;;;;;58.17;36.20;;;17.10;90.30;;;;;;5086846;28;20032;-57
2021/06/30 06:35:06;;;;;;;51.22;35.92;;;17.20;90.40;;;;;;5089153;28;20150;-57
2021/06/30 06:37:38;;;;;;;51.22;36.28;;;17.10;90.30;;;;;;5092121;28;20032;-57
2021/06/30 06:40:10;;;;;;;;;;;17.20;90.40;;;;;;5092832;28;20043;-52
2021/06/30 06:42:57;;;;;;;57.50;34.78;;;17.20;90.30;;;;;;5089455;28;20026;-49
2021/06/30 06:45:25;;;;;;;50.22;34.25;;;17.20;90.30;;;;;;5093897;28;20032;-52
2021/06/30 06:47:52;;;;;;;53.97;36.08;;;17.10;90.30;;;;;;5092736;28;20055;-53
2021/06/30 06:50:20;;;;;;;48.20;33.95;;;17.20;90.20;;;;;;5093356;28;20479;-57
2021/06/30 06:52:47;;;;;;;46.35;33.75;;;17.10;90.30;;;;;;5089852;28;20043;-56
2021/06/30 06:55:14;;;;;;;50.15;33.38;;;17.10;90.30;;;;;;5092449;28;20077;-52
2021/06/30 06:57:42;;;;;;;47.72;32.95;;;17.20;90.30;;;;;;5093210;28;20024;-51
2021/06/30 07:00:09;;;;;;;48.47;33.05;;;17.10;90.30;;;;;;5093131;28;20118;-56
2021/06/30 07:02:37;;;;;;;45.72;34.00;;;17.20;90.30;;;;;;5085273;28;20059;-58
2021/06/30 07:05:06;;;;;;;51.03;35.17;;;17.10;90.30;;;;;;5090893;28;20028;-57
2021/06/30 07:07:45;;;;;;;52.63;33.85;;;17.10;90.40;;;;;;5070729;28;20016;-55
2021/06/30 07:10:13;;;;;;;46.08;33.35;;;17.10;90.40;;;;;;5091972;28;20020;-55
2021/06/30 07:12:41;;;;;;;48.42;34.03;;;17.10;90.50;;;;;;5090001;28;20032;-55
2021/06/30 07:15:10;;;;;;;47.03;34.05;;;17.00;90.40;;;;;;5092252;28;20024;-55
2021/06/30 07:17:39;;;;;;;47.92;32.03;;;17.00;90.60;;;;;;5091955;28;20028;-55
2021/06/30 07:20:08;;;;;;;51.45;34.53;;;17.00;90.70;;;;;;5091908;28;20063;-55
2021/06/30 07:22:36;;;;;;;42.95;32.25;;;17.00;90.60;;;;;;5091269;28;20053;-50
2021/06/30 07:25:04;;;;;;;48.35;32.25;;;17.00;90.70;;;;;;5090386;28;20028;-56
2021/06/30 07:27:31;;;;;;;46.63;31.70;;;17.00;91.10;;;;;;5090892;28;20048;-52
2021/06/30 07:29:59;;;;;;;47.45;33.58;;;17.00;90.80;;;;;;5092763;28;20031;-56
2021/06/30 07:32:26;;;;;;;44.17;32.42;;;17.00;90.70;;;;;;5092146;28;20024;-59
2021/06/30 07:34:58;;;;;;;50.13;31.33;;;17.00;90.80;;;;;;5089429;28;20028;-55
2021/06/30 07:37:26;;;;;;;45.25;29.83;;;17.00;90.80;;;;;;5092221;28;20063;-52
2021/06/30 07:39:53;;;;;;;38.47;29.58;;;17.00;90.80;;;;;;5091168;28;20047;-54
2021/06/30 07:42:21;;;;;;;39.83;28.55;;;17.00;90.80;;;;;;5089299;28;20016;-60
2021/06/30 07:44:49;;;;;;;43.00;29.10;;;17.00;90.90;;;;;;5087619;28;20408;-57
2021/06/30 07:47:20;;;;;;;43.85;29.55;;;17.00;90.90;;;;;;5091912;28;20029;-55
2021/06/30 07:49:48;;;;;;;34.67;25.00;;;16.90;90.80;;;;;;5091961;28;20028;-51
2021/06/30 07:52:15;;;;;;;39.97;26.55;;;17.00;91.10;;;;;;5090370;28;20028;-50
2021/06/30 07:54:42;;;;;;;34.20;25.23;;;17.00;91.10;;;;;;5088286;28;20489;-51
2021/06/30 07:57:10;;;;;;;36.45;26.50;;;17.00;91.10;;;;;;5091550;28;20032;-55
2021/06/30 07:59:37;;;;;;;41.47;26.92;;;17.00;91.00;;;;;;5091253;28;20082;-51
2021/06/30 08:02:04;;;;;;;30.00;21.23;;;17.00;90.90;;;;;;5087708;28;20134;-56
2021/06/30 08:04:32;;;;;;;32.15;23.40;;;17.00;91.30;;;;;;5087422;28;20055;-57
2021/06/30 08:06:59;;;;;;;35.03;24.27;;;17.00;91.30;;;;;;5091724;28;20027;-55
2021/06/30 08:09:28;;;;;;;36.00;25.85;;;17.00;91.10;;;;;;5090751;28;20040;-56
2021/06/30 08:11:56;;;;;;;37.35;25.67;;;17.00;91.10;;;;;;5091248;28;20032;-57
2021/06/30 08:14:24;;;;;;;33.60;24.05;;;17.00;90.90;;;;;;5087833;28;20069;-56
2021/06/30 08:16:52;;;;;;;32.60;23.10;;;17.00;91.10;;;;;;5090972;28;20039;-55
2021/06/30 08:19:20;;;;;;;33.63;25.15;;;16.90;91.10;;;;;;5088659;28;20374;-55
2021/06/30 08:21:48;;;;;;;35.40;25.23;;;16.90;91.00;;;;;;5089132;28;20111;-52
2021/06/30 08:24:15;;;;;;;34.92;24.90;;;16.90;90.90;;;;;;5092292;28;20028;-53
2021/06/30 08:26:44;;;;;;;32.85;23.17;;;16.90;90.90;;;;;;5093448;28;20379;-55
2021/06/30 08:29:12;;;;;;;35.67;24.52;;;16.90;91.20;;;;;;5093473;28;20055;-53
2021/06/30 08:31:39;;;;;;;28.25;23.15;;;16.90;91.00;;;;;;5093863;28;20036;-57
2021/06/30 08:34:06;;;;;;;35.15;24.70;;;16.80;91.10;;;;;;5092523;28;20028;-51
2021/06/30 08:36:34;;;;;;;34.40;24.10;;;16.80;91.00;;;;;;5093475;28;20127;-55
2021/06/30 08:39:01;;;;;;;32.38;22.10;;;16.80;91.10;;;;;;5093362;28;20026;-51
2021/06/30 08:41:28;;;;;;;30.67;21.63;;;16.80;91.20;;;;;;5093345;28;20053;-57
2021/06/30 08:43:57;;;;;;;30.40;21.15;;;16.80;91.10;;;;;;5093317;28;20509;-53
2021/06/30 08:46:26;;;;;;;31.55;22.30;;;16.80;91.20;;;;;;5093305;28;20028;-51
2021/06/30 08:49:00;;;;;;;32.90;21.75;;;16.70;91.20;;;;;;5093041;28;20103;-53
2021/06/30 08:51:27;;;;;;;34.28;23.48;;;16.70;91.20;;;;;;5093342;28;20020;-53
2021/06/30 08:53:56;;;;;;;30.58;21.35;;;16.70;91.20;;;;;;5092865;28;20024;-50
2021/06/30 08:56:31;;;;;;;32.30;21.33;;;16.70;91.40;;;;;;5090370;28;20032;-54
2021/06/30 08:58:59;;;;;;;35.67;22.98;;;16.70;91.50;;;;;;5092992;28;20069;-53
2021/06/30 09:01:28;;;;;;;27.05;18.92;;;16.70;91.30;;;;;;5093068;28;20435;-54
2021/06/30 09:03:56;;;;;;;28.02;20.20;;;16.70;91.50;;;;;;5091827;28;20020;-54
2021/06/30 09:06:25;;;;;;;31.83;21.50;;;16.70;91.30;;;;;;5093051;28;20024;-53
2021/06/30 09:08:52;;;;;;;28.02;20.33;;;16.70;91.30;;;;;;5092988;28;20106;-58
2021/06/30 09:11:27;;;;;;;29.73;20.70;;;16.70;91.30;;;;;;5092863;28;20030;-54
2021/06/30 09:14:22;;;;;;;27.85;20.02;;;16.70;91.30;;;;;;5091645;28;20058;-55
2021/06/30 09:17:00;;;;;;;31.45;21.88;;;16.70;91.30;;;;;;5092875;28;20020;-58
2021/06/30 09:19:55;;;;;;;25.23;19.45;;;16.70;91.40;;;;;;5089330;28;20032;-55
2021/06/30 09:22:29;;;;;;;25.88;20.17;;;16.70;91.30;;;;;;5092900;28;20028;-57
2021/06/30 09:24:57;;;;;;;26.75;19.17;;;16.70;91.30;;;;;;5092633;28;20028;-57
2021/06/30 09:27:43;;;;;;;31.08;20.70;;;16.70;91.50;;;;;;5090201;28;20122;-60
2021/06/30 09:30:12;;;;;;;26.50;18.77;;;16.70;91.50;;;;;;5092965;28;20027;-53
2021/06/30 09:33:03;;;;;;;27.52;19.33;;;16.70;91.50;;;;;;5092962;28;20084;-51
2021/06/30 09:35:33;;;;;;;31.58;19.08;;;16.60;91.50;;;;;;5091823;28;20085;-55
2021/06/30 09:38:30;;;;;;;31.00;19.20;;;16.70;91.50;;;;;;5093004;28;20074;-56
2021/06/30 09:40:59;;;;;;;25.52;19.38;;;16.60;91.60;;;;;;5092258;28;20032;-57
2021/06/30 09:43:32;;;;;;;27.48;19.17;;;16.60;91.80;;;;;;5092449;28;20502;-57
2021/06/30 09:46:01;;;;;;;26.27;20.27;;;16.70;91.70;;;;;;5092864;28;20024;-57
2021/06/30 09:48:33;;;;;;;31.92;20.05;;;16.60;91.80;;;;;;5093016;28;20027;-57
2021/06/30 09:51:04;;;;;;;44.15;26.65;;;16.60;91.80;;;;;;5091869;28;20070;-58
2021/06/30 09:53:35;;;;;;;55.92;33.83;;;16.70;91.90;;;;;;5092574;28;20028;-51
2021/06/30 09:59:18;;;;;;;156.13;85.90;;;16.60;92.00;;;;;;5083455;28;20064;-52
2021/06/30 10:01:54;;;;;;;182.13;97.07;;;16.60;92.30;;;;;;5090758;28;20032;-58
2021/06/30 10:04:47;;;;;;;203.05;109.72;;;16.70;92.40;;;;;;5086981;28;20020;-54
2021/06/30 10:07:27;;;;;;;195.85;109.57;;;16.60;92.20;;;;;;5088528;28;20039;-50
2021/06/30 10:10:05;;;;;;;199.32;112.18;;;16.70;92.20;;;;;;5086533;28;20021;-54
2021/06/30 10:12:34;;;;;;;202.45;115.28;;;16.70;92.10;;;;;;5090399;28;20148;-55
2021/06/30 10:15:04;;;;;;;203.82;114.70;;;16.70;92.10;;;;;;5093215;28;20024;-52
2021/06/30 10:17:32;;;;;;;209.88;118.95;;;16.70;92.30;;;;;;5093589;28;20024;-54
2021/06/30 10:20:02;;;;;;;206.70;117.55;;;16.70;92.00;;;;;;5093039;28;20490;-52
2021/06/30 10:22:30;;;;;;;205.38;116.40;;;16.70;91.90;;;;;;5088489;28;20074;-52
2021/06/30 10:24:58;;;;;;;223.20;122.00;;;16.70;92.00;;;;;;5092874;28;20471;-57
2021/06/30 10:27:26;;;;;;;208.25;117.82;;;16.70;91.90;;;;;;5090056;28;20072;-53
2021/06/30 10:29:59;;;;;;;224.68;126.30;;;16.70;91.90;;;;;;5093643;28;20024;-53
2021/06/30 10:32:28;;;;;;;214.57;120.50;;;16.70;91.90;;;;;;5093587;28;20020;-56
2021/06/30 10:34:58;;;;;;;226.35;125.97;;;16.70;91.80;;;;;;5091233;28;20073;-51
2021/06/30 10:37:31;;;;;;;214.55;124.13;;;16.70;91.80;;;;;;5089902;28;20025;-52
2021/06/30 10:40:02;;;;;;;221.38;123.78;;;16.70;91.70;;;;;;5093131;28;20097;-53
2021/06/30 10:42:34;;;;;;;210.60;121.97;;;16.70;91.70;;;;;;5091416;28;20070;-51
2021/06/30 10:45:06;;;;;;;211.68;126.38;;;16.80;91.70;;;;;;5091504;28;20034;-52
2021/06/30 10:47:45;;;;;;;216.10;121.87;;;16.70;91.70;;;;;;5091533;28;20035;-52
2021/06/30 10:50:35;;;;;;;214.75;124.25;;;16.70;91.70;;;;;;5091625;28;20036;-51
2021/06/30 10:53:11;;;;;;;218.15;124.88;;;16.70;91.60;;;;;;5093663;28;20031;-54
2021/06/30 10:55:41;;;;;;;220.55;126.82;;;16.70;91.70;;;;;;5090296;28;20020;-52
2021/06/30 10:58:32;;;;;;;225.70;128.60;;;16.70;91.70;;;;;;5092734;28;20032;-59
2021/06/30 11:01:04;;;;;;;223.88;131.13;;;16.70;91.70;;;;;;5092117;28;20043;-48
2021/06/30 11:03:37;;;;;;;209.32;125.55;;;16.60;91.70;;;;;;5092986;28;20191;-53
2021/06/30 11:06:10;;;;;;;;;;;16.70;91.70;;;;;;5087325;28;20055;-50
2021/06/30 11:08:46;;;;;;;222.55;128.13;;;16.60;91.70;;;;;;5090693;28;19957;-59
2021/06/30 11:11:21;;;;;;;211.02;125.63;;;16.60;91.80;;;;;;5090268;28;20160;-53
2021/06/30 11:14:05;;;;;;;223.20;133.77;;;16.60;91.90;;;;;;5092745;28;20024;-51
2021/06/30 11:16:38;;;;;;;215.50;128.77;;;16.60;91.80;;;;;;5088679;28;20047;-52
2021/06/30 11:19:08;;;;;;;212.90;125.22;;;16.60;91.80;;;;;;5091049;28;20020;-55
2021/06/30 11:22:04;;;;;;;204.90;121.55;;;16.60;91.80;;;;;;5092002;28;20039;-53
2021/06/30 11:24:35;;;;;;;;;;;;;;;;;;;;;
2021/06/30 11:27:35;;;;;;;210.68;128.75;;;16.60;92.00;;;;;;5088914;28;20040;-52
2021/06/30 11:30:07;;;;;;;208.35;124.65;;;16.60;91.90;;;;;;5089405;28;20032;-54
2021/06/30 11:32:43;;;;;;;209.25;125.32;;;16.50;92.10;;;;;;5092386;28;20044;-50
2021/06/30 11:35:15;;;;;;;175.77;102.53;;;16.50;92.00;;;;;;5089518;28;20021;-58
2021/06/30 11:37:57;;;;;;;207.65;124.70;;;16.50;92.40;;;;;;5091697;28;20028;-60
2021/06/30 11:41:00;;;;;;;210.10;124.38;;;16.50;92.00;;;;;;5091333;28;20124;-54
2021/06/30 11:43:31;;;;;;;210.68;124.60;;;16.50;92.00;;;;;;5085657;28;20051;-49
2021/06/30 11:46:03;;;;;;;200.00;124.75;;;16.40;92.00;;;;;;5088428;28;20020;-56
2021/06/30 11:48:32;;;;;;;203.70;123.70;;;16.50;92.00;;;;;;5072326;28;20485;-55
2021/06/30 11:51:09;;;;;;;203.02;123.35;;;16.50;92.00;;;;;;5092636;28;20111;-53
2021/06/30 11:53:48;;;;;;;203.02;125.65;;;16.50;92.00;;;;;;5090811;28;20097;-52
2021/06/30 11:56:37;;;;;;;197.63;120.15;;;16.50;92.00;;;;;;5087157;28;20487;-52
2021/06/30 11:59:10;;;;;;;196.68;118.30;;;16.40;92.10;;;;;;5090041;28;20114;-55
2021/06/30 12:01:39;;;;;;;208.60;125.00;;;16.40;92.00;;;;;;5091827;28;20031;-49
2021/06/30 12:04:11;;;;;;;194.85;120.75;;;16.50;92.00;;;;;;5091460;28;20588;-47
2021/06/30 12:06:39;;;;;;;;;;;16.40;92.00;;;;;;5088189;28;20090;-53
2021/06/30 12:09:21;;;;;;;193.65;117.68;;;16.40;91.90;;;;;;5091511;28;19924;-53
2021/06/30 12:12:03;;;;;;;195.70;122.75;;;16.40;91.90;;;;;;5091509;28;20519;-51
2021/06/30 12:14:39;;;;;;;204.93;124.57;;;16.40;91.90;;;;;;5088990;28;20486;-55
2021/06/30 12:17:11;;;;;;;201.20;121.55;;;16.40;91.90;;;;;;5086562;28;20060;-57
2021/06/30 12:19:52;;;;;;;196.10;117.75;;;16.40;92.00;;;;;;5091182;28;20024;-58
2021/06/30 12:22:26;;;;;;;193.55;118.90;;;16.40;92.00;;;;;;5090239;28;20035;-54
2021/06/30 12:25:06;;;;;;;192.95;119.32;;;16.40;92.00;;;;;;5089991;28;20028;-55
2021/06/30 12:27:39;;;;;;;199.73;120.35;;;16.50;92.00;;;;;;5088633;28;20403;-50
2021/06/30 12:30:15;;;;;;;188.75;114.95;;;16.40;92.00;;;;;;5090757;28;20032;-56
2021/06/30 12:32:48;;;;;;;190.20;118.03;;;16.40;92.10;;;;;;5090898;28;20474;-55
2021/06/30 12:35:21;;;;;;;187.50;117.10;;;16.40;92.10;;;;;;5086424;28;20020;-57
2021/06/30 12:38:06;;;;;;;196.85;116.63;;;16.40;92.10;;;;;;5089072;28;20036;-58
2021/06/30 12:40:35;;;;;;;193.75;118.82;;;16.40;92.00;;;;;;5090050;28;20453;-60
2021/06/30 12:43:21;;;;;;;195.40;119.47;;;16.40;92.00;;;;;;5088382;28;20081;-54
2021/06/30 12:45:55;;;;;;;186.30;116.38;;;16.40;92.00;;;;;;5086585;28;20036;-59
2021/06/30 12:48:28;;;;;;;179.65;112.30;;;16.30;91.90;;;;;;5089720;28;21143;-57